sensor_id;sensor_type;location;lat;lon;timestamp;P1;durP1;ratioP1;P2;durP2;ratioP2
11230;SDS011;5672;51.060;3.734;2022-08-01T00:01:02;6.63;;;3.47;;
11230;SDS011;5672;51.060;3.734;2022-08-01T00:03:28;4.10;;;3.70;;
11230;SDS011;5672;51.060;3.734;2022-08-01T00:05:54;5.30;;;3.63;;
11230;SDS011;5672;51.060;3.734;2022-08-01T00:08:20;6.33;;;3.60;;
11230;SDS011;5672;51.060;3.734;2022-08-01T00:10:46;4.63;;;3.73;;
11230;SDS011;5672;51.060;3.734;2022-08-01T00:13:12;8.40;;;5.07;;
11230;SDS011;5672;51.060;3.734;2022-08-01T00:15:38;6.00;;;4.53;;
11230;SDS011;5672;51.060;3.734;2022-08-01T00:18:04;7.47;;;5.93;;
11230;SDS011;5672;51.060;3.734;2022-08-01T00:20:30;8.10;;;5.07;;
11230;SDS011;5672;51.060;3.734;2022-08-01T00:22:56;10.97;;;6.20;;
11230;SDS011;5672;51.060;3.734;2022-08-01T00:25:22;9.23;;;5.53;;
11230;SDS011;5672;51.060;3.734;2022-08-01T00:27:48;13.07;;;5.97;;
11230;SDS011;5672;51.060;3.734;2022-08-01T00:30:14;9.63;;;5.80;;
11230;SDS011;5672;51.060;3.734;2022-08-01T00:32:41;12.23;;;6.07;;
11230;SDS011;5672;51.060;3.734;2022-08-01T00:35:08;11.17;;;6.40;;
11230;SDS011;5672;51.060;3.734;2022-08-01T00:37:34;8.70;;;6.20;;
11230;SDS011;5672;51.060;3.734;2022-08-01T00:40:00;11.33;;;6.27;;
11230;SDS011;5672;51.060;3.734;2022-08-01T00:42:26;10.97;;;6.50;;
11230;SDS011;5672;51.060;3.734;2022-08-01T00:44:52;10.63;;;6.63;;
11230;SDS011;5672;51.060;3.734;2022-08-01T00:47:18;9.80;;;7.00;;
11230;SDS011;5672;51.060;3.734;2022-08-01T00:49:44;8.53;;;6.37;;
11230;SDS011;5672;51.060;3.734;2022-08-01T00:52:10;9.60;;;6.90;;
11230;SDS011;5672;51.060;3.734;2022-08-01T00:54:36;10.93;;;7.53;;
11230;SDS011;5672;51.060;3.734;2022-08-01T00:57:03;13.17;;;7.20;;
11230;SDS011;5672;51.060;3.734;2022-08-01T00:59:29;10.87;;;7.20;;
11230;SDS011;5672;51.060;3.734;2022-08-01T01:01:55;12.80;;;7.60;;
11230;SDS011;5672;51.060;3.734;2022-08-01T01:04:21;15.00;;;8.40;;
11230;SDS011;5672;51.060;3.734;2022-08-01T01:06:59;12.57;;;7.67;;
11230;SDS011;5672;51.060;3.734;2022-08-01T01:09:39;11.83;;;8.27;;
11230;SDS011;5672;51.060;3.734;2022-08-01T01:12:13;18.03;;;8.40;;
11230;SDS011;5672;51.060;3.734;2022-08-01T01:14:42;12.23;;;8.63;;
11230;SDS011;5672;51.060;3.734;2022-08-01T01:17:11;19.43;;;9.90;;
11230;SDS011;5672;51.060;3.734;2022-08-01T01:19:39;15.00;;;8.87;;
11230;SDS011;5672;51.060;3.734;2022-08-01T01:22:27;17.13;;;9.70;;
11230;SDS011;5672;51.060;3.734;2022-08-01T01:25:04;17.47;;;9.70;;
11230;SDS011;5672;51.060;3.734;2022-08-01T01:29:59;16.33;;;8.83;;
11230;SDS011;5672;51.060;3.734;2022-08-01T01:32:33;15.60;;;9.33;;
11230;SDS011;5672;51.060;3.734;2022-08-01T01:35:45;12.87;;;8.93;;
11230;SDS011;5672;51.060;3.734;2022-08-01T01:37:51;17.13;;;10.20;;
11230;SDS011;5672;51.060;3.734;2022-08-01T01:40:20;16.40;;;9.93;;
11230;SDS011;5672;51.060;3.734;2022-08-01T01:42:46;15.73;;;10.17;;
11230;SDS011;5672;51.060;3.734;2022-08-01T01:45:13;13.17;;;10.20;;
11230;SDS011;5672;51.060;3.734;2022-08-01T01:47:39;13.13;;;9.77;;
11230;SDS011;5672;51.060;3.734;2022-08-01T01:50:07;11.87;;;6.63;;
11230;SDS011;5672;51.060;3.734;2022-08-01T01:52:34;11.97;;;6.27;;
11230;SDS011;5672;51.060;3.734;2022-08-01T01:55:01;9.47;;;6.20;;
11230;SDS011;5672;51.060;3.734;2022-08-01T01:57:27;9.47;;;5.00;;
11230;SDS011;5672;51.060;3.734;2022-08-01T01:59:53;10.93;;;5.03;;
11230;SDS011;5672;51.060;3.734;2022-08-01T02:02:20;9.93;;;4.77;;
11230;SDS011;5672;51.060;3.734;2022-08-01T02:04:48;7.07;;;4.20;;
11230;SDS011;5672;51.060;3.734;2022-08-01T02:07:16;6.70;;;4.23;;
11230;SDS011;5672;51.060;3.734;2022-08-01T02:09:43;5.67;;;4.70;;
11230;SDS011;5672;51.060;3.734;2022-08-01T02:12:11;7.53;;;4.03;;
11230;SDS011;5672;51.060;3.734;2022-08-01T02:14:37;7.20;;;3.87;;
11230;SDS011;5672;51.060;3.734;2022-08-01T02:17:05;4.83;;;3.60;;
11230;SDS011;5672;51.060;3.734;2022-08-01T02:19:34;6.70;;;3.93;;
11230;SDS011;5672;51.060;3.734;2022-08-01T02:22:01;5.80;;;3.63;;
11230;SDS011;5672;51.060;3.734;2022-08-01T02:27:14;5.13;;;3.07;;
11230;SDS011;5672;51.060;3.734;2022-08-01T02:29:56;3.87;;;3.50;;
11230;SDS011;5672;51.060;3.734;2022-08-01T02:32:24;7.07;;;3.27;;
11230;SDS011;5672;51.060;3.734;2022-08-01T02:34:51;4.33;;;3.13;;
11230;SDS011;5672;51.060;3.734;2022-08-01T02:37:18;4.63;;;3.30;;
11230;SDS011;5672;51.060;3.734;2022-08-01T02:39:45;6.03;;;3.10;;
11230;SDS011;5672;51.060;3.734;2022-08-01T02:42:13;4.53;;;3.13;;
11230;SDS011;5672;51.060;3.734;2022-08-01T02:44:41;4.43;;;2.63;;
11230;SDS011;5672;51.060;3.734;2022-08-01T02:47:07;4.03;;;2.70;;
11230;SDS011;5672;51.060;3.734;2022-08-01T02:49:35;4.87;;;3.30;;
11230;SDS011;5672;51.060;3.734;2022-08-01T02:52:03;8.53;;;3.23;;
11230;SDS011;5672;51.060;3.734;2022-08-01T02:54:30;6.20;;;3.23;;
11230;SDS011;5672;51.060;3.734;2022-08-01T02:56:57;3.13;;;2.63;;
11230;SDS011;5672;51.060;3.734;2022-08-01T02:59:23;2.97;;;2.73;;
11230;SDS011;5672;51.060;3.734;2022-08-01T03:01:51;4.63;;;2.73;;
11230;SDS011;5672;51.060;3.734;2022-08-01T03:04:18;4.20;;;2.70;;
11230;SDS011;5672;51.060;3.734;2022-08-01T03:06:46;3.63;;;2.20;;
11230;SDS011;5672;51.060;3.734;2022-08-01T03:09:14;3.37;;;2.37;;
11230;SDS011;5672;51.060;3.734;2022-08-01T03:11:41;4.27;;;2.73;;
11230;SDS011;5672;51.060;3.734;2022-08-01T03:14:07;3.17;;;2.83;;
11230;SDS011;5672;51.060;3.734;2022-08-01T03:16:35;2.80;;;2.30;;
11230;SDS011;5672;51.060;3.734;2022-08-01T03:19:02;2.83;;;2.30;;
11230;SDS011;5672;51.060;3.734;2022-08-01T03:21:29;3.10;;;2.03;;
11230;SDS011;5672;51.060;3.734;2022-08-01T03:23:56;2.50;;;1.80;;
11230;SDS011;5672;51.060;3.734;2022-08-01T03:26:27;4.87;;;2.20;;
11230;SDS011;5672;51.060;3.734;2022-08-01T03:28:57;2.30;;;2.10;;
11230;SDS011;5672;51.060;3.734;2022-08-01T03:31:24;1.90;;;1.80;;
11230;SDS011;5672;51.060;3.734;2022-08-01T03:33:50;1.90;;;1.80;;
11230;SDS011;5672;51.060;3.734;2022-08-01T03:36:17;2.60;;;2.07;;
11230;SDS011;5672;51.060;3.734;2022-08-01T03:38:45;2.33;;;2.13;;
11230;SDS011;5672;51.060;3.734;2022-08-01T03:41:15;3.00;;;1.73;;
11230;SDS011;5672;51.060;3.734;2022-08-01T03:43:46;2.10;;;2.00;;
11230;SDS011;5672;51.060;3.734;2022-08-01T03:46:17;2.20;;;2.10;;
11230;SDS011;5672;51.060;3.734;2022-08-01T03:48:46;2.17;;;2.07;;
11230;SDS011;5672;51.060;3.734;2022-08-01T03:51:13;2.43;;;2.10;;
11230;SDS011;5672;51.060;3.734;2022-08-01T03:53:41;2.10;;;1.97;;
11230;SDS011;5672;51.060;3.734;2022-08-01T03:56:08;2.83;;;2.43;;
11230;SDS011;5672;51.060;3.734;2022-08-01T03:58:34;2.30;;;2.10;;
11230;SDS011;5672;51.060;3.734;2022-08-01T04:01:01;2.57;;;2.30;;
11230;SDS011;5672;51.060;3.734;2022-08-01T04:03:27;5.57;;;2.33;;
11230;SDS011;5672;51.060;3.734;2022-08-01T04:05:53;2.30;;;2.10;;
11230;SDS011;5672;51.060;3.734;2022-08-01T04:08:19;2.60;;;2.40;;
11230;SDS011;5672;51.060;3.734;2022-08-01T04:10:45;2.73;;;2.63;;
11230;SDS011;5672;51.060;3.734;2022-08-01T04:13:11;2.23;;;2.13;;
11230;SDS011;5672;51.060;3.734;2022-08-01T04:15:37;3.23;;;2.80;;
11230;SDS011;5672;51.060;3.734;2022-08-01T04:18:04;2.87;;;2.73;;
11230;SDS011;5672;51.060;3.734;2022-08-01T04:20:31;3.30;;;2.50;;
11230;SDS011;5672;51.060;3.734;2022-08-01T04:22:57;2.77;;;2.57;;
11230;SDS011;5672;51.060;3.734;2022-08-01T04:25:33;2.80;;;2.60;;
11230;SDS011;5672;51.060;3.734;2022-08-01T04:28:00;3.73;;;3.00;;
11230;SDS011;5672;51.060;3.734;2022-08-01T04:30:29;2.67;;;2.57;;
11230;SDS011;5672;51.060;3.734;2022-08-01T04:32:57;3.77;;;3.20;;
11230;SDS011;5672;51.060;3.734;2022-08-01T04:35:24;2.50;;;2.40;;
11230;SDS011;5672;51.060;3.734;2022-08-01T04:37:51;4.07;;;2.67;;
11230;SDS011;5672;51.060;3.734;2022-08-01T04:40:18;7.17;;;3.20;;
11230;SDS011;5672;51.060;3.734;2022-08-01T04:42:46;3.37;;;3.10;;
11230;SDS011;5672;51.060;3.734;2022-08-01T04:45:13;3.50;;;2.70;;
11230;SDS011;5672;51.060;3.734;2022-08-01T04:47:40;3.13;;;2.93;;
11230;SDS011;5672;51.060;3.734;2022-08-01T04:50:06;3.33;;;3.07;;
11230;SDS011;5672;51.060;3.734;2022-08-01T04:52:33;3.50;;;3.30;;
11230;SDS011;5672;51.060;3.734;2022-08-01T04:54:59;3.20;;;3.00;;
11230;SDS011;5672;51.060;3.734;2022-08-01T04:57:25;2.60;;;2.50;;
11230;SDS011;5672;51.060;3.734;2022-08-01T04:59:51;3.07;;;2.97;;
11230;SDS011;5672;51.060;3.734;2022-08-01T05:02:22;3.27;;;3.03;;
11230;SDS011;5672;51.060;3.734;2022-08-01T05:04:48;2.57;;;2.37;;
11230;SDS011;5672;51.060;3.734;2022-08-01T05:07:14;2.73;;;2.53;;
11230;SDS011;5672;51.060;3.734;2022-08-01T05:09:41;4.40;;;2.80;;
11230;SDS011;5672;51.060;3.734;2022-08-01T05:12:07;3.17;;;2.97;;
11230;SDS011;5672;51.060;3.734;2022-08-01T05:14:34;3.10;;;2.60;;
11230;SDS011;5672;51.060;3.734;2022-08-01T05:17:00;3.33;;;2.80;;
11230;SDS011;5672;51.060;3.734;2022-08-01T05:19:28;3.20;;;2.90;;
11230;SDS011;5672;51.060;3.734;2022-08-01T05:21:54;2.87;;;2.77;;
11230;SDS011;5672;51.060;3.734;2022-08-01T05:24:21;4.20;;;2.57;;
11230;SDS011;5672;51.060;3.734;2022-08-01T05:26:47;2.90;;;2.70;;
11230;SDS011;5672;51.060;3.734;2022-08-01T05:29:14;2.80;;;2.60;;
11230;SDS011;5672;51.060;3.734;2022-08-01T05:31:40;3.07;;;2.83;;
11230;SDS011;5672;51.060;3.734;2022-08-01T05:34:06;3.33;;;3.03;;
11230;SDS011;5672;51.060;3.734;2022-08-01T05:36:32;2.50;;;2.30;;
11230;SDS011;5672;51.060;3.734;2022-08-01T05:38:58;3.00;;;2.80;;
11230;SDS011;5672;51.060;3.734;2022-08-01T05:41:24;2.47;;;2.37;;
11230;SDS011;5672;51.060;3.734;2022-08-01T05:43:51;2.80;;;2.63;;
11230;SDS011;5672;51.060;3.734;2022-08-01T05:46:17;2.57;;;2.37;;
11230;SDS011;5672;51.060;3.734;2022-08-01T05:48:43;3.20;;;2.70;;
11230;SDS011;5672;51.060;3.734;2022-08-01T05:51:09;3.73;;;2.70;;
11230;SDS011;5672;51.060;3.734;2022-08-01T05:53:35;3.00;;;2.70;;
11230;SDS011;5672;51.060;3.734;2022-08-01T05:56:01;3.13;;;2.57;;
11230;SDS011;5672;51.060;3.734;2022-08-01T05:58:27;2.90;;;2.70;;
11230;SDS011;5672;51.060;3.734;2022-08-01T06:00:53;2.70;;;2.50;;
11230;SDS011;5672;51.060;3.734;2022-08-01T06:03:19;3.33;;;2.97;;
11230;SDS011;5672;51.060;3.734;2022-08-01T06:05:46;3.87;;;2.60;;
11230;SDS011;5672;51.060;3.734;2022-08-01T06:08:12;3.03;;;2.83;;
11230;SDS011;5672;51.060;3.734;2022-08-01T06:10:38;3.47;;;3.03;;
11230;SDS011;5672;51.060;3.734;2022-08-01T06:13:04;2.70;;;2.50;;
11230;SDS011;5672;51.060;3.734;2022-08-01T06:15:31;2.70;;;2.47;;
11230;SDS011;5672;51.060;3.734;2022-08-01T06:17:57;3.07;;;2.63;;
11230;SDS011;5672;51.060;3.734;2022-08-01T06:20:23;2.30;;;2.20;;
11230;SDS011;5672;51.060;3.734;2022-08-01T06:22:49;2.10;;;2.00;;
11230;SDS011;5672;51.060;3.734;2022-08-01T06:25:16;2.30;;;2.20;;
11230;SDS011;5672;51.060;3.734;2022-08-01T06:27:43;2.40;;;1.90;;
11230;SDS011;5672;51.060;3.734;2022-08-01T06:30:09;2.17;;;1.87;;
11230;SDS011;5672;51.060;3.734;2022-08-01T06:32:35;2.33;;;2.13;;
11230;SDS011;5672;51.060;3.734;2022-08-01T06:35:01;3.27;;;2.00;;
11230;SDS011;5672;51.060;3.734;2022-08-01T06:37:30;2.40;;;2.20;;
11230;SDS011;5672;51.060;3.734;2022-08-01T06:40:03;3.37;;;2.17;;
11230;SDS011;5672;51.060;3.734;2022-08-01T06:42:29;2.10;;;1.90;;
11230;SDS011;5672;51.060;3.734;2022-08-01T06:45:07;2.20;;;2.00;;
11230;SDS011;5672;51.060;3.734;2022-08-01T06:47:34;2.50;;;2.27;;
11230;SDS011;5672;51.060;3.734;2022-08-01T06:50:00;2.40;;;2.20;;
11230;SDS011;5672;51.060;3.734;2022-08-01T06:52:26;2.13;;;2.00;;
11230;SDS011;5672;51.060;3.734;2022-08-01T06:54:52;4.00;;;2.57;;
11230;SDS011;5672;51.060;3.734;2022-08-01T06:57:18;4.00;;;1.90;;
11230;SDS011;5672;51.060;3.734;2022-08-01T06:59:44;3.60;;;2.43;;
11230;SDS011;5672;51.060;3.734;2022-08-01T07:02:10;2.50;;;2.40;;
11230;SDS011;5672;51.060;3.734;2022-08-01T07:04:36;2.47;;;2.20;;
11230;SDS011;5672;51.060;3.734;2022-08-01T07:07:02;3.40;;;2.30;;
11230;SDS011;5672;51.060;3.734;2022-08-01T07:09:28;2.70;;;2.17;;
11230;SDS011;5672;51.060;3.734;2022-08-01T07:11:55;2.17;;;2.07;;
11230;SDS011;5672;51.060;3.734;2022-08-01T07:14:21;2.10;;;1.90;;
11230;SDS011;5672;51.060;3.734;2022-08-01T07:16:48;2.73;;;1.90;;
11230;SDS011;5672;51.060;3.734;2022-08-01T07:19:14;4.47;;;1.70;;
11230;SDS011;5672;51.060;3.734;2022-08-01T07:21:40;3.00;;;1.70;;
11230;SDS011;5672;51.060;3.734;2022-08-01T07:24:07;2.63;;;1.67;;
11230;SDS011;5672;51.060;3.734;2022-08-01T07:26:34;1.90;;;1.50;;
11230;SDS011;5672;51.060;3.734;2022-08-01T07:29:00;2.33;;;1.73;;
11230;SDS011;5672;51.060;3.734;2022-08-01T07:31:26;2.00;;;1.40;;
11230;SDS011;5672;51.060;3.734;2022-08-01T07:33:52;1.90;;;1.20;;
11230;SDS011;5672;51.060;3.734;2022-08-01T07:36:18;3.03;;;1.40;;
11230;SDS011;5672;51.060;3.734;2022-08-01T07:38:44;1.70;;;1.30;;
11230;SDS011;5672;51.060;3.734;2022-08-01T07:41:10;1.53;;;1.30;;
11230;SDS011;5672;51.060;3.734;2022-08-01T07:43:36;1.63;;;1.50;;
11230;SDS011;5672;51.060;3.734;2022-08-01T07:46:03;2.00;;;1.40;;
11230;SDS011;5672;51.060;3.734;2022-08-01T07:48:29;2.20;;;1.40;;
11230;SDS011;5672;51.060;3.734;2022-08-01T07:50:55;3.37;;;1.60;;
11230;SDS011;5672;51.060;3.734;2022-08-01T07:53:21;1.73;;;1.30;;
11230;SDS011;5672;51.060;3.734;2022-08-01T07:55:47;4.10;;;1.17;;
11230;SDS011;5672;51.060;3.734;2022-08-01T07:58:14;1.60;;;1.50;;
11230;SDS011;5672;51.060;3.734;2022-08-01T08:00:40;1.40;;;1.30;;
11230;SDS011;5672;51.060;3.734;2022-08-01T08:03:06;3.60;;;1.40;;
11230;SDS011;5672;51.060;3.734;2022-08-01T08:05:32;1.43;;;1.33;;
11230;SDS011;5672;51.060;3.734;2022-08-01T08:08:02;1.07;;;1.07;;
11230;SDS011;5672;51.060;3.734;2022-08-01T08:10:28;3.20;;;1.80;;
11230;SDS011;5672;51.060;3.734;2022-08-01T08:12:54;1.57;;;1.47;;
11230;SDS011;5672;51.060;3.734;2022-08-01T08:15:20;1.30;;;1.30;;
11230;SDS011;5672;51.060;3.734;2022-08-01T08:17:46;1.50;;;1.40;;
11230;SDS011;5672;51.060;3.734;2022-08-01T08:20:12;1.40;;;1.40;;
11230;SDS011;5672;51.060;3.734;2022-08-01T08:22:38;1.60;;;1.50;;
11230;SDS011;5672;51.060;3.734;2022-08-01T08:25:05;2.13;;;2.03;;
11230;SDS011;5672;51.060;3.734;2022-08-01T08:27:32;2.70;;;2.20;;
11230;SDS011;5672;51.060;3.734;2022-08-01T08:29:58;2.30;;;2.10;;
11230;SDS011;5672;51.060;3.734;2022-08-01T08:32:24;2.70;;;2.50;;
11230;SDS011;5672;51.060;3.734;2022-08-01T08:34:50;2.00;;;1.90;;
11230;SDS011;5672;51.060;3.734;2022-08-01T08:37:16;2.30;;;2.10;;
11230;SDS011;5672;51.060;3.734;2022-08-01T08:39:42;2.20;;;2.03;;
11230;SDS011;5672;51.060;3.734;2022-08-01T08:42:09;1.90;;;1.80;;
11230;SDS011;5672;51.060;3.734;2022-08-01T08:44:36;2.23;;;2.07;;
11230;SDS011;5672;51.060;3.734;2022-08-01T08:47:03;4.57;;;2.33;;
11230;SDS011;5672;51.060;3.734;2022-08-01T08:49:31;2.27;;;2.13;;
11230;SDS011;5672;51.060;3.734;2022-08-01T08:52:00;2.93;;;2.67;;
11230;SDS011;5672;51.060;3.734;2022-08-01T08:54:27;1.90;;;1.80;;
11230;SDS011;5672;51.060;3.734;2022-08-01T08:56:54;1.90;;;1.80;;
11230;SDS011;5672;51.060;3.734;2022-08-01T08:59:20;1.20;;;1.20;;
11230;SDS011;5672;51.060;3.734;2022-08-01T09:01:49;1.27;;;1.10;;
11230;SDS011;5672;51.060;3.734;2022-08-01T09:04:15;1.80;;;1.03;;
11230;SDS011;5672;51.060;3.734;2022-08-01T09:06:41;0.90;;;0.90;;
11230;SDS011;5672;51.060;3.734;2022-08-01T09:09:07;1.17;;;1.00;;
11230;SDS011;5672;51.060;3.734;2022-08-01T09:11:34;2.50;;;1.57;;
11230;SDS011;5672;51.060;3.734;2022-08-01T09:16:36;1.47;;;1.33;;
11230;SDS011;5672;51.060;3.734;2022-08-01T09:21:34;1.00;;;1.00;;
11230;SDS011;5672;51.060;3.734;2022-08-01T09:24:00;1.30;;;1.30;;
11230;SDS011;5672;51.060;3.734;2022-08-01T09:26:34;1.63;;;1.40;;
11230;SDS011;5672;51.060;3.734;2022-08-01T09:29:02;1.87;;;1.50;;
11230;SDS011;5672;51.060;3.734;2022-08-01T09:31:28;1.57;;;1.47;;
11230;SDS011;5672;51.060;3.734;2022-08-01T09:33:58;1.97;;;1.80;;
11230;SDS011;5672;51.060;3.734;2022-08-01T09:39:28;1.50;;;1.40;;
11230;SDS011;5672;51.060;3.734;2022-08-01T09:41:55;2.30;;;1.60;;
11230;SDS011;5672;51.060;3.734;2022-08-01T09:47:23;1.87;;;1.70;;
11230;SDS011;5672;51.060;3.734;2022-08-01T09:50:02;3.43;;;2.10;;
11230;SDS011;5672;51.060;3.734;2022-08-01T09:52:28;2.73;;;1.73;;
11230;SDS011;5672;51.060;3.734;2022-08-01T09:54:58;4.17;;;1.73;;
11230;SDS011;5672;51.060;3.734;2022-08-01T09:57:25;2.30;;;1.80;;
11230;SDS011;5672;51.060;3.734;2022-08-01T09:59:53;1.70;;;1.60;;
11230;SDS011;5672;51.060;3.734;2022-08-01T10:04:57;1.93;;;1.70;;
11230;SDS011;5672;51.060;3.734;2022-08-01T10:07:23;1.73;;;1.63;;
11230;SDS011;5672;51.060;3.734;2022-08-01T10:09:49;2.00;;;1.90;;
11230;SDS011;5672;51.060;3.734;2022-08-01T10:12:16;3.07;;;1.70;;
11230;SDS011;5672;51.060;3.734;2022-08-01T10:14:44;1.80;;;1.70;;
11230;SDS011;5672;51.060;3.734;2022-08-01T10:17:11;2.97;;;1.73;;
11230;SDS011;5672;51.060;3.734;2022-08-01T10:19:37;2.07;;;1.90;;
11230;SDS011;5672;51.060;3.734;2022-08-01T10:22:08;1.80;;;1.70;;
11230;SDS011;5672;51.060;3.734;2022-08-01T10:24:36;2.03;;;1.43;;
11230;SDS011;5672;51.060;3.734;2022-08-01T10:27:03;1.40;;;1.30;;
11230;SDS011;5672;51.060;3.734;2022-08-01T10:29:31;1.40;;;1.30;;
11230;SDS011;5672;51.060;3.734;2022-08-01T10:32:01;1.67;;;1.23;;
11230;SDS011;5672;51.060;3.734;2022-08-01T10:34:28;2.47;;;1.80;;
11230;SDS011;5672;51.060;3.734;2022-08-01T10:36:55;2.20;;;1.63;;
11230;SDS011;5672;51.060;3.734;2022-08-01T10:39:21;1.73;;;1.53;;
11230;SDS011;5672;51.060;3.734;2022-08-01T10:41:47;3.47;;;1.70;;
11230;SDS011;5672;51.060;3.734;2022-08-01T10:44:13;2.00;;;1.90;;
11230;SDS011;5672;51.060;3.734;2022-08-01T10:46:45;1.83;;;1.70;;
11230;SDS011;5672;51.060;3.734;2022-08-01T10:49:13;1.80;;;1.70;;
11230;SDS011;5672;51.060;3.734;2022-08-01T10:51:39;1.83;;;1.73;;
11230;SDS011;5672;51.060;3.734;2022-08-01T10:54:06;2.33;;;1.90;;
11230;SDS011;5672;51.060;3.734;2022-08-01T10:56:40;1.80;;;1.70;;
11230;SDS011;5672;51.060;3.734;2022-08-01T10:59:08;3.70;;;2.43;;
11230;SDS011;5672;51.060;3.734;2022-08-01T11:01:34;3.00;;;1.90;;
11230;SDS011;5672;51.060;3.734;2022-08-01T11:04:02;2.13;;;1.80;;
11230;SDS011;5672;51.060;3.734;2022-08-01T11:09:02;1.90;;;1.80;;
11230;SDS011;5672;51.060;3.734;2022-08-01T11:11:29;2.63;;;1.70;;
11230;SDS011;5672;51.060;3.734;2022-08-01T11:16:26;3.33;;;1.97;;
11230;SDS011;5672;51.060;3.734;2022-08-01T11:18:52;1.80;;;1.70;;
11230;SDS011;5672;51.060;3.734;2022-08-01T11:21:18;1.93;;;1.70;;
11230;SDS011;5672;51.060;3.734;2022-08-01T11:23:48;1.90;;;1.70;;
11230;SDS011;5672;51.060;3.734;2022-08-01T11:26:15;2.23;;;1.70;;
11230;SDS011;5672;51.060;3.734;2022-08-01T11:28:41;5.17;;;2.00;;
11230;SDS011;5672;51.060;3.734;2022-08-01T11:41:11;2.17;;;2.00;;
11230;SDS011;5672;51.060;3.734;2022-08-01T11:43:53;2.00;;;1.90;;
11230;SDS011;5672;51.060;3.734;2022-08-01T11:46:38;2.57;;;2.00;;
11230;SDS011;5672;51.060;3.734;2022-08-01T11:52:09;2.23;;;1.97;;
11230;SDS011;5672;51.060;3.734;2022-08-01T11:54:36;4.77;;;2.03;;
11230;SDS011;5672;51.060;3.734;2022-08-01T11:57:05;2.00;;;1.83;;
11230;SDS011;5672;51.060;3.734;2022-08-01T11:59:38;2.00;;;1.90;;
11230;SDS011;5672;51.060;3.734;2022-08-01T12:02:14;2.63;;;2.40;;
11230;SDS011;5672;51.060;3.734;2022-08-01T12:04:44;2.30;;;2.10;;
11230;SDS011;5672;51.060;3.734;2022-08-01T12:07:14;2.17;;;1.93;;
11230;SDS011;5672;51.060;3.734;2022-08-01T12:09:40;2.80;;;1.90;;
11230;SDS011;5672;51.060;3.734;2022-08-01T12:12:06;2.00;;;1.90;;
11230;SDS011;5672;51.060;3.734;2022-08-01T12:14:32;4.83;;;2.20;;
11230;SDS011;5672;51.060;3.734;2022-08-01T12:16:58;4.03;;;2.33;;
11230;SDS011;5672;51.060;3.734;2022-08-01T12:19:24;2.57;;;1.77;;
11230;SDS011;5672;51.060;3.734;2022-08-01T12:22:10;1.93;;;1.60;;
11230;SDS011;5672;51.060;3.734;2022-08-01T12:24:37;1.50;;;1.50;;
11230;SDS011;5672;51.060;3.734;2022-08-01T12:27:04;2.77;;;1.53;;
11230;SDS011;5672;51.060;3.734;2022-08-01T12:29:40;2.17;;;1.57;;
11230;SDS011;5672;51.060;3.734;2022-08-01T12:32:21;2.10;;;1.43;;
11230;SDS011;5672;51.060;3.734;2022-08-01T12:34:48;1.50;;;1.40;;
11230;SDS011;5672;51.060;3.734;2022-08-01T12:37:14;4.00;;;1.50;;
11230;SDS011;5672;51.060;3.734;2022-08-01T12:39:40;1.33;;;1.30;;
11230;SDS011;5672;51.060;3.734;2022-08-01T12:42:07;2.10;;;1.60;;
11230;SDS011;5672;51.060;3.734;2022-08-01T12:44:35;2.90;;;1.93;;
11230;SDS011;5672;51.060;3.734;2022-08-01T12:47:02;2.50;;;1.73;;
11230;SDS011;5672;51.060;3.734;2022-08-01T12:49:30;2.93;;;2.00;;
11230;SDS011;5672;51.060;3.734;2022-08-01T12:51:56;2.47;;;1.67;;
11230;SDS011;5672;51.060;3.734;2022-08-01T12:54:22;2.40;;;1.80;;
11230;SDS011;5672;51.060;3.734;2022-08-01T12:56:50;3.53;;;2.00;;
11230;SDS011;5672;51.060;3.734;2022-08-01T12:59:21;1.80;;;1.70;;
11230;SDS011;5672;51.060;3.734;2022-08-01T13:01:49;2.20;;;1.87;;
11230;SDS011;5672;51.060;3.734;2022-08-01T13:04:16;3.30;;;1.80;;
11230;SDS011;5672;51.060;3.734;2022-08-01T13:06:42;1.93;;;1.67;;
11230;SDS011;5672;51.060;3.734;2022-08-01T13:09:08;2.03;;;1.93;;
11230;SDS011;5672;51.060;3.734;2022-08-01T13:11:38;3.23;;;1.70;;
11230;SDS011;5672;51.060;3.734;2022-08-01T13:14:05;1.90;;;1.70;;
11230;SDS011;5672;51.060;3.734;2022-08-01T13:16:31;2.57;;;2.13;;
11230;SDS011;5672;51.060;3.734;2022-08-01T13:18:58;3.80;;;2.10;;
11230;SDS011;5672;51.060;3.734;2022-08-01T13:21:25;2.40;;;1.93;;
11230;SDS011;5672;51.060;3.734;2022-08-01T13:24:10;2.40;;;2.13;;
11230;SDS011;5672;51.060;3.734;2022-08-01T13:29:09;3.47;;;1.70;;
11230;SDS011;5672;51.060;3.734;2022-08-01T13:31:36;1.50;;;1.40;;
11230;SDS011;5672;51.060;3.734;2022-08-01T13:34:02;2.10;;;1.33;;
11230;SDS011;5672;51.060;3.734;2022-08-01T13:36:28;1.60;;;1.50;;
11230;SDS011;5672;51.060;3.734;2022-08-01T13:38:56;3.80;;;1.63;;
11230;SDS011;5672;51.060;3.734;2022-08-01T13:41:40;2.03;;;1.30;;
11230;SDS011;5672;51.060;3.734;2022-08-01T13:44:07;1.37;;;1.27;;
11230;SDS011;5672;51.060;3.734;2022-08-01T13:46:34;1.33;;;1.03;;
11230;SDS011;5672;51.060;3.734;2022-08-01T13:49:00;1.17;;;1.00;;
11230;SDS011;5672;51.060;3.734;2022-08-01T13:51:26;1.83;;;1.20;;
11230;SDS011;5672;51.060;3.734;2022-08-01T13:53:52;1.00;;;1.00;;
11230;SDS011;5672;51.060;3.734;2022-08-01T13:56:18;1.40;;;1.30;;
11230;SDS011;5672;51.060;3.734;2022-08-01T13:58:45;0.90;;;0.90;;
11230;SDS011;5672;51.060;3.734;2022-08-01T14:01:11;4.10;;;0.85;;
11230;SDS011;5672;51.060;3.734;2022-08-01T14:03:37;1.05;;;0.95;;
11230;SDS011;5672;51.060;3.734;2022-08-01T14:06:03;1.05;;;0.95;;
11230;SDS011;5672;51.060;3.734;2022-08-01T14:08:29;2.30;;;1.17;;
11230;SDS011;5672;51.060;3.734;2022-08-01T14:10:55;3.55;;;0.98;;
11230;SDS011;5672;51.060;3.734;2022-08-01T14:13:23;1.40;;;1.30;;
11230;SDS011;5672;51.060;3.734;2022-08-01T14:15:50;1.42;;;1.02;;
11230;SDS011;5672;51.060;3.734;2022-08-01T14:18:16;1.63;;;1.35;;
11230;SDS011;5672;51.060;3.734;2022-08-01T14:20:42;0.75;;;0.75;;
11230;SDS011;5672;51.060;3.734;2022-08-01T14:23:09;0.98;;;0.98;;
11230;SDS011;5672;51.060;3.734;2022-08-01T14:25:35;3.08;;;1.17;;
11230;SDS011;5672;51.060;3.734;2022-08-01T14:28:02;1.52;;;1.10;;
11230;SDS011;5672;51.060;3.734;2022-08-01T14:30:28;1.27;;;1.17;;
11230;SDS011;5672;51.060;3.734;2022-08-01T14:32:54;1.88;;;1.30;;
11230;SDS011;5672;51.060;3.734;2022-08-01T14:35:20;2.13;;;1.40;;
11230;SDS011;5672;51.060;3.734;2022-08-01T14:37:46;1.13;;;1.02;;
11230;SDS011;5672;51.060;3.734;2022-08-01T14:40:12;1.10;;;1.00;;
11230;SDS011;5672;51.060;3.734;2022-08-01T14:42:38;3.15;;;1.38;;
11230;SDS011;5672;51.060;3.734;2022-08-01T14:45:05;2.15;;;1.27;;
11230;SDS011;5672;51.060;3.734;2022-08-01T14:47:40;3.05;;;1.55;;
11230;SDS011;5672;51.060;3.734;2022-08-01T14:50:07;2.80;;;1.30;;
11230;SDS011;5672;51.060;3.734;2022-08-01T14:52:34;1.23;;;1.02;;
11230;SDS011;5672;51.060;3.734;2022-08-01T14:55:00;1.98;;;1.23;;
11230;SDS011;5672;51.060;3.734;2022-08-01T14:57:27;1.43;;;1.07;;
11230;SDS011;5672;51.060;3.734;2022-08-01T14:59:53;1.60;;;1.50;;
11230;SDS011;5672;51.060;3.734;2022-08-01T15:02:19;1.57;;;1.30;;
11230;SDS011;5672;51.060;3.734;2022-08-01T15:04:45;1.13;;;1.10;;
11230;SDS011;5672;51.060;3.734;2022-08-01T15:07:12;1.53;;;1.10;;
11230;SDS011;5672;51.060;3.734;2022-08-01T15:09:38;1.10;;;1.10;;
11230;SDS011;5672;51.060;3.734;2022-08-01T15:12:04;1.40;;;1.30;;
11230;SDS011;5672;51.060;3.734;2022-08-01T15:14:31;2.67;;;1.60;;
11230;SDS011;5672;51.060;3.734;2022-08-01T15:17:12;1.77;;;0.90;;
11230;SDS011;5672;51.060;3.734;2022-08-01T15:19:38;4.23;;;1.23;;
11230;SDS011;5672;51.060;3.734;2022-08-01T15:22:04;2.40;;;1.10;;
11230;SDS011;5672;51.060;3.734;2022-08-01T15:24:30;2.93;;;1.20;;
11230;SDS011;5672;51.060;3.734;2022-08-01T15:26:56;2.30;;;1.40;;
11230;SDS011;5672;51.060;3.734;2022-08-01T15:29:23;1.80;;;1.10;;
11230;SDS011;5672;51.060;3.734;2022-08-01T15:31:49;1.20;;;1.10;;
11230;SDS011;5672;51.060;3.734;2022-08-01T15:34:15;1.23;;;1.13;;
11230;SDS011;5672;51.060;3.734;2022-08-01T15:36:41;1.57;;;1.10;;
11230;SDS011;5672;51.060;3.734;2022-08-01T15:39:10;2.03;;;1.30;;
11230;SDS011;5672;51.060;3.734;2022-08-01T15:41:36;1.47;;;1.30;;